createdAt,value
2018-05-29T00:02:44.657Z,21.17
2018-05-29T00:06:17.148Z,21.47
2018-05-29T00:09:49.624Z,23.00
2018-05-29T00:13:22.123Z,22.30
2018-05-29T00:16:54.621Z,21.43
2018-05-29T00:20:27.859Z,23.23
2018-05-29T00:24:00.360Z,22.27
2018-05-29T00:27:32.834Z,21.70
2018-05-29T00:31:05.328Z,23.07
2018-05-29T00:34:37.828Z,25.13
2018-05-29T00:38:10.310Z,23.60
2018-05-29T00:41:42.800Z,24.00
2018-05-29T00:45:16.049Z,21.90
2018-05-29T00:48:48.544Z,23.97
2018-05-29T00:52:21.032Z,25.57
2018-05-29T00:55:53.512Z,25.30
2018-05-29T00:59:26.004Z,23.97
2018-05-29T01:02:58.501Z,24.17
2018-05-29T01:06:31.004Z,22.90
2018-05-29T01:10:04.256Z,24.00
2018-05-29T01:13:36.753Z,24.93
2018-05-29T01:17:09.228Z,24.70
2018-05-29T01:20:41.725Z,26.00
2018-05-29T01:24:14.205Z,26.00
2018-05-29T01:27:46.709Z,26.17
2018-05-29T01:31:19.186Z,28.20
2018-05-29T01:34:51.677Z,29.70
2018-05-29T01:38:24.977Z,26.63
2018-05-29T01:41:58.228Z,25.97
2018-05-29T01:45:30.712Z,27.47
2018-05-29T01:49:03.188Z,27.43
2018-05-29T01:52:35.685Z,28.60
2018-05-29T01:56:08.160Z,26.60
2018-05-29T01:59:40.654Z,27.13
2018-05-29T02:03:13.140Z,26.80
2018-05-29T02:06:45.631Z,27.03
2018-05-29T02:10:18.125Z,27.83
2018-05-29T02:13:51.392Z,28.03
2018-05-29T02:17:23.882Z,26.10
2018-05-29T02:20:56.365Z,26.17
2018-05-29T02:24:28.853Z,26.40
2018-05-29T02:28:01.372Z,28.60
2018-05-29T02:31:33.843Z,26.90
2018-05-29T02:35:07.099Z,29.20
2018-05-29T02:38:39.577Z,25.27
2018-05-29T02:42:12.067Z,27.67
2018-05-29T02:45:44.563Z,24.87
2018-05-29T02:49:17.034Z,27.57
2018-05-29T02:52:49.570Z,28.90
2018-05-29T02:56:22.024Z,27.83
2018-05-29T02:59:55.269Z,28.90
2018-05-29T03:03:28.521Z,30.03
2018-05-29T03:07:01.760Z,30.27
2018-05-29T03:10:34.248Z,28.67
2018-05-29T03:14:06.736Z,29.37
2018-05-29T03:17:39.228Z,27.07
2018-05-29T03:21:11.704Z,27.90
2018-05-29T03:24:44.191Z,30.83
2018-05-29T03:28:16.689Z,28.50
2018-05-29T03:31:49.173Z,29.43
2018-05-29T03:35:21.660Z,28.40
2018-05-29T03:38:54.136Z,31.33
2018-05-29T03:42:26.641Z,29.27
2018-05-29T03:45:59.116Z,36.77
2018-05-29T03:49:31.628Z,37.90
2018-05-29T03:53:04.105Z,35.17
2018-05-29T03:56:37.363Z,35.50
2018-05-29T04:00:09.835Z,34.50
2018-05-29T04:03:42.338Z,33.77
2018-05-29T04:07:15.638Z,34.10
2018-05-29T04:10:48.134Z,35.20
2018-05-29T04:14:20.609Z,35.10
2018-05-29T04:17:53.116Z,30.70
2018-05-29T04:21:26.358Z,32.77
2018-05-29T04:24:58.855Z,33.50
2018-05-29T04:28:31.332Z,33.60
2018-05-29T04:32:03.815Z,32.70
2018-05-29T04:35:36.321Z,32.20
2018-05-29T04:39:08.813Z,33.20
2018-05-29T04:42:42.065Z,34.47
2018-05-29T04:46:14.567Z,31.70
2018-05-29T04:49:47.043Z,29.30
2018-05-29T04:53:19.548Z,31.37
2018-05-29T04:56:52.022Z,31.53
2018-05-29T05:00:24.526Z,28.23
2018-05-29T05:03:57.770Z,30.30
2018-05-29T05:07:30.270Z,31.30
2018-05-29T05:11:02.758Z,31.17
2018-05-29T05:14:35.256Z,30.90
2018-05-29T05:18:07.758Z,33.37
2018-05-29T05:21:40.995Z,32.40
2018-05-29T05:25:13.491Z,29.40
2018-05-29T05:28:45.973Z,28.33
2018-05-29T05:32:18.481Z,28.93
2018-05-29T05:35:50.955Z,27.07
2018-05-29T05:39:23.460Z,29.07
2018-05-29T05:42:56.707Z,30.40
2018-05-29T05:46:29.203Z,31.70
2018-05-29T05:50:01.692Z,26.53
2018-05-29T05:53:34.181Z,29.73
2018-05-29T05:57:06.670Z,29.30
2018-05-29T06:00:39.168Z,30.33
2018-05-29T06:04:12.423Z,28.20
2018-05-29T06:07:44.942Z,28.10
2018-05-29T06:11:17.439Z,29.97
2018-05-29T06:14:50.695Z,26.73
2018-05-29T06:18:23.183Z,29.47
2018-05-29T06:21:55.669Z,26.93
2018-05-29T06:25:28.157Z,27.77
2018-05-29T06:29:00.633Z,26.30
2018-05-29T06:32:33.119Z,26.87
2018-05-29T06:36:05.621Z,26.13
2018-05-29T06:39:38.099Z,27.93
2018-05-29T06:43:10.583Z,25.83
2018-05-29T06:46:43.068Z,29.70
2018-05-29T06:50:16.332Z,25.70
2018-05-29T06:53:48.808Z,26.50
2018-05-29T06:57:21.299Z,26.37
2018-05-29T07:00:53.812Z,25.07
2018-05-29T07:04:26.292Z,25.47
2018-05-29T07:07:58.775Z,26.77
2018-05-29T07:11:31.251Z,24.77
2018-05-29T07:15:03.755Z,23.47
2018-05-29T07:18:37.037Z,26.07
2018-05-29T07:22:09.519Z,24.57
2018-05-29T07:25:42.010Z,24.37
2018-05-29T07:29:14.507Z,25.07
2018-05-29T07:32:47.003Z,25.00
2018-05-29T07:36:19.488Z,23.27
2018-05-29T07:39:51.995Z,28.00
2018-05-29T07:43:24.500Z,25.50
2018-05-29T07:46:56.971Z,22.83
2018-05-29T07:50:29.458Z,25.97
2018-05-29T07:54:01.941Z,25.60
2018-05-29T07:57:34.458Z,23.43
2018-05-29T08:01:07.717Z,24.90
2018-05-29T08:04:40.201Z,26.67
2018-05-29T08:08:12.680Z,26.10
2018-05-29T08:11:45.165Z,27.07
2018-05-29T08:15:17.668Z,26.77
2018-05-29T08:18:50.162Z,24.10
2018-05-29T08:22:23.406Z,25.90
2018-05-29T08:25:55.887Z,25.97
2018-05-29T08:29:28.376Z,24.37
2018-05-29T08:33:00.862Z,26.27
2018-05-29T08:36:33.351Z,27.80
2018-05-29T08:40:05.864Z,27.37
2018-05-29T08:43:39.618Z,24.50
2018-05-29T08:47:12.119Z,22.23
2018-05-29T08:50:44.617Z,23.83
2018-05-29T08:54:17.116Z,26.00
2018-05-29T08:57:49.584Z,22.20
2018-05-29T09:01:22.075Z,22.90
2018-05-29T09:04:54.558Z,21.30
2018-05-29T09:08:27.054Z,22.10
2018-05-29T09:12:00.305Z,20.77
2018-05-29T09:15:32.801Z,20.97
2018-05-29T09:19:05.301Z,19.63
2018-05-29T09:22:37.775Z,20.93
2018-05-29T09:26:10.260Z,18.97
2018-05-29T09:29:42.827Z,18.80
2018-05-29T09:33:16.011Z,20.10
2018-05-29T09:36:48.501Z,17.77
2018-05-29T09:40:20.979Z,20.63
2018-05-29T09:43:53.464Z,18.90
2018-05-29T09:47:25.941Z,18.80
2018-05-29T09:50:58.432Z,18.20
2018-05-29T09:54:30.953Z,17.30
2018-05-29T09:58:03.429Z,18.83
2018-05-29T10:01:35.916Z,18.50
2018-05-29T10:05:08.424Z,18.07
2018-05-29T10:08:40.903Z,19.23
2018-05-29T10:12:13.407Z,17.43
2018-05-29T10:15:45.892Z,15.37
2018-05-29T10:19:18.380Z,17.00
2018-05-29T10:22:50.864Z,16.00
2018-05-29T10:26:23.758Z,16.40
2018-05-29T10:29:56.250Z,16.40
2018-05-29T10:33:28.719Z,17.20
2018-05-29T10:37:01.215Z,18.27
2018-05-29T10:40:33.689Z,19.33
2018-05-29T10:44:06.180Z,18.07
2018-05-29T10:47:39.427Z,21.03
2018-05-29T10:51:11.915Z,19.30
2018-05-29T10:54:44.416Z,19.30
2018-05-29T10:58:16.895Z,20.73
2018-05-29T11:01:49.384Z,20.60
2018-05-29T11:05:21.886Z,19.83
2018-05-29T11:08:54.380Z,21.90
2018-05-29T11:12:26.855Z,20.27
2018-05-29T11:15:59.345Z,21.40
2018-05-29T11:19:31.836Z,20.63
2018-05-29T11:23:04.319Z,19.80
2018-05-29T11:26:36.820Z,18.80
2018-05-29T11:30:10.055Z,17.30
2018-05-29T11:33:42.543Z,16.73
2018-05-29T11:37:15.019Z,17.83
2018-05-29T11:40:47.512Z,17.10
2018-05-29T11:44:19.987Z,14.70
2018-05-29T11:47:52.480Z,16.20
2018-05-29T11:51:24.955Z,13.73
2018-05-29T11:54:57.495Z,14.57
2018-05-29T11:58:29.936Z,15.33
2018-05-29T12:02:02.422Z,16.70
2018-05-29T12:05:34.907Z,14.93
2018-05-29T12:09:07.380Z,14.93
2018-05-29T12:12:39.885Z,14.10
2018-05-29T12:16:12.355Z,13.10
2018-05-29T12:19:44.851Z,13.37
2018-05-29T12:23:17.333Z,10.90
2018-05-29T12:26:49.833Z,11.93
2018-05-29T12:30:23.100Z,12.17
2018-05-29T12:33:55.589Z,13.00
2018-05-29T12:37:28.071Z,13.20
2018-05-29T12:41:00.563Z,14.80
2018-05-29T12:44:33.049Z,14.20
2018-05-29T12:48:05.555Z,15.10
2018-05-29T12:51:38.032Z,14.87
2018-05-29T12:55:11.293Z,14.83
2018-05-29T12:58:43.779Z,14.10
2018-05-29T13:02:16.259Z,14.40
2018-05-29T13:05:48.763Z,14.20
2018-05-29T13:09:22.011Z,13.57
2018-05-29T13:12:54.508Z,12.97
2018-05-29T13:16:26.996Z,14.07
2018-05-29T13:19:59.486Z,13.60
2018-05-29T13:23:31.966Z,14.87
2018-05-29T13:27:04.524Z,13.70
2018-05-29T13:30:37.726Z,13.80
2018-05-29T13:34:10.209Z,13.40
2018-05-29T13:37:42.685Z,14.53
2018-05-29T13:41:15.185Z,14.30
2018-05-29T13:44:47.679Z,14.00
2018-05-29T13:48:20.176Z,13.87
2018-05-29T13:51:52.660Z,15.13
2018-05-29T13:55:25.140Z,13.73
2018-05-29T13:58:57.618Z,14.37
2018-05-29T14:02:30.103Z,14.60
2018-05-29T14:06:02.592Z,15.10
2018-05-29T14:09:35.833Z,12.87
2018-05-29T14:13:08.344Z,15.57
2018-05-29T14:16:40.812Z,15.47
2018-05-29T14:20:13.305Z,15.73
2018-05-29T14:23:45.802Z,14.77
2018-05-29T14:27:18.282Z,15.80
2018-05-29T14:30:50.767Z,16.27
2018-05-29T14:34:23.274Z,17.30
2018-05-29T14:37:56.510Z,16.30
2018-05-29T14:41:29.004Z,16.10
2018-05-29T14:45:01.502Z,15.60
2018-05-29T14:48:33.983Z,17.00
2018-05-29T14:52:06.470Z,15.57
2018-05-29T14:55:38.977Z,13.87
2018-05-29T14:59:12.232Z,13.90
2018-05-29T15:02:44.715Z,14.20
2018-05-29T15:06:17.221Z,13.67
2018-05-29T15:09:49.707Z,14.10
2018-05-29T15:13:22.216Z,14.50
2018-05-29T15:16:55.463Z,14.53
2018-05-29T15:20:27.954Z,10.80
2018-05-29T15:24:00.432Z,12.37
2018-05-29T15:27:32.912Z,12.70
2018-05-29T15:31:05.399Z,12.40
2018-05-29T15:34:37.884Z,12.37
2018-05-29T15:38:10.373Z,12.47
2018-05-29T15:41:42.857Z,10.67
2018-05-29T15:45:15.347Z,10.53
2018-05-29T15:48:47.825Z,9.80
2018-05-29T15:52:20.333Z,10.40
2018-05-29T15:55:53.577Z,10.90
2018-05-29T15:59:26.080Z,11.83
2018-05-29T16:02:58.565Z,10.60
2018-05-29T16:06:31.067Z,12.20
2018-05-29T16:10:03.538Z,9.80
2018-05-29T16:13:36.032Z,10.20
2018-05-29T16:17:09.272Z,10.47
2018-05-29T16:20:41.764Z,10.70
2018-05-29T16:24:14.246Z,11.30
2018-05-29T16:27:46.737Z,9.60
2018-05-29T16:31:19.212Z,11.93
2018-05-29T16:38:32.510Z,15.73
2018-05-29T16:42:04.956Z,15.90
2018-05-29T16:45:37.455Z,17.00
2018-05-29T16:49:09.966Z,16.07
2018-05-29T16:52:42.437Z,16.47
2018-05-29T16:56:14.919Z,17.37
2018-05-29T16:59:47.568Z,14.67
2018-05-29T17:03:20.040Z,15.83
2018-05-29T17:06:52.520Z,17.10
2018-05-29T17:10:24.991Z,18.00
2018-05-29T17:13:57.472Z,17.83
2018-05-29T17:17:29.965Z,18.30
2018-05-29T17:21:02.428Z,20.40
2018-05-29T17:24:34.935Z,19.57
2018-05-29T17:28:07.414Z,20.20
2018-05-29T17:31:39.877Z,20.20
2018-05-29T17:35:12.357Z,21.70
2018-05-29T17:38:44.873Z,23.00
2018-05-29T17:42:17.360Z,21.87
2018-05-29T17:45:49.911Z,22.17
2018-05-29T17:49:22.391Z,23.10
2018-05-29T17:52:54.859Z,23.60
2018-05-29T17:56:28.111Z,22.90
2018-05-29T18:00:00.603Z,24.00
2018-05-29T18:03:33.081Z,22.60
2018-05-29T18:07:05.557Z,21.70
2018-05-29T18:10:38.032Z,21.37
2018-05-29T18:14:10.507Z,19.23
2018-05-29T18:17:42.979Z,19.70
2018-05-29T18:21:15.460Z,20.03
2018-05-29T18:24:47.948Z,16.27
2018-05-29T18:28:20.424Z,16.33
2018-05-29T18:31:52.920Z,16.43
2018-05-29T18:35:25.396Z,15.47
2018-05-29T18:38:57.877Z,14.70
2018-05-29T18:42:30.363Z,16.00
2018-05-29T18:46:02.849Z,15.60
2018-05-29T18:49:35.345Z,16.40
2018-05-29T18:53:08.043Z,15.23
2018-05-29T18:56:40.875Z,15.57
2018-05-29T19:00:13.461Z,15.37
2018-05-29T19:03:46.674Z,14.80
2018-05-29T19:07:19.222Z,16.13
2018-05-29T19:10:51.773Z,16.83
2018-05-29T19:14:24.353Z,17.37
2018-05-29T19:17:56.941Z,17.27
2018-05-29T19:21:29.407Z,15.47
2018-05-29T19:25:02.164Z,16.80
2018-05-29T19:28:34.672Z,16.53
2018-05-29T19:32:08.100Z,16.70
2018-05-29T19:35:41.371Z,18.50
2018-05-29T19:39:13.856Z,23.73
2018-05-29T19:42:46.370Z,26.23
2018-05-29T19:46:18.849Z,24.67
2018-05-29T19:49:51.349Z,22.00
2018-05-29T19:53:24.588Z,23.80
2018-05-29T19:56:57.075Z,22.23
2018-05-29T20:00:29.564Z,22.60
2018-05-29T20:04:02.061Z,23.77
2018-05-29T20:07:34.557Z,21.90
2018-05-29T20:11:07.041Z,22.80
2018-05-29T20:14:39.541Z,22.10
2018-05-29T20:18:12.775Z,20.20
2018-05-29T20:21:45.264Z,21.77
2018-05-29T20:25:17.742Z,24.33
2018-05-29T20:28:50.232Z,22.70
2018-05-29T20:32:24.380Z,22.70
2018-05-29T20:35:58.168Z,22.57
2018-05-29T20:39:30.654Z,19.90
2018-05-29T20:43:04.506Z,21.17
2018-05-29T20:46:37.215Z,23.40
2018-05-29T20:50:10.581Z,21.40
2018-05-29T20:53:43.113Z,22.00
2018-05-29T20:57:15.632Z,19.40
2018-05-29T21:00:48.128Z,21.17
2018-05-29T21:04:20.725Z,21.27
2018-05-29T21:07:53.257Z,19.80
2018-05-29T21:11:26.376Z,20.07
2018-05-29T21:14:58.876Z,20.30
2018-05-29T21:18:31.715Z,21.40
2018-05-29T21:22:04.217Z,18.57
2018-05-29T21:25:36.697Z,21.60
2018-05-29T21:29:09.187Z,21.40
2018-05-29T21:32:41.689Z,20.90
2018-05-29T21:36:14.281Z,23.90
2018-05-29T21:39:46.804Z,21.33
2018-05-29T21:43:19.292Z,23.23
2018-05-29T21:46:51.859Z,24.30
2018-05-29T21:50:25.119Z,25.60
2018-05-29T21:53:58.673Z,22.83
2018-05-29T21:57:31.943Z,23.30
2018-05-29T22:01:05.212Z,24.30
2018-05-29T22:04:37.759Z,24.63
2018-05-29T22:08:11.371Z,23.17
2018-05-29T22:11:50.885Z,19.87
2018-05-29T22:15:23.397Z,21.30
2018-05-29T22:18:55.882Z,18.60
2018-05-29T22:22:29.049Z,18.70
2018-05-29T22:26:01.599Z,20.13
2018-05-29T22:29:34.124Z,20.90
2018-05-29T22:33:07.439Z,19.67
2018-05-29T22:36:39.945Z,22.00
2018-05-29T22:40:12.432Z,21.73
2018-05-29T22:43:45.043Z,18.50
2018-05-29T22:47:17.564Z,22.50
2018-05-29T22:50:50.812Z,23.60
2018-05-29T22:54:23.317Z,24.17
2018-05-29T22:57:55.843Z,25.17
2018-05-29T23:01:28.341Z,20.90
2018-05-29T23:05:00.845Z,21.27
2018-05-29T23:08:33.327Z,21.33
2018-05-29T23:12:05.821Z,23.60
2018-05-29T23:15:38.325Z,25.47
2018-05-29T23:19:10.806Z,21.80
2018-05-29T23:22:43.290Z,22.83
2018-05-29T23:26:16.535Z,21.47
2018-05-29T23:29:49.033Z,20.80
2018-05-29T23:33:21.509Z,23.63
2018-05-29T23:36:53.988Z,20.80
2018-05-29T23:40:26.464Z,21.83
2018-05-29T23:43:58.949Z,21.57
2018-05-29T23:47:32.848Z,23.13
2018-05-29T23:51:05.360Z,18.70
2018-05-29T23:54:37.900Z,20.10
2018-05-29T23:58:10.393Z,20.97
